Kezdőlap
METAR-TAF:

METAR-TAF

Repülőterek :

Koror, Babeldaob, Palau

földrajzi szélesség: 07-22N, földrajzi hosszúság: 134-32E, magasság: 54 m

Jelenlegi meteorológiai megfigyelések

A jelentés 1 órával és 7 perccel ezelõtt készült, 21:50 UTC
Észak-északkeleti szél 4 kt
Hőmérséklet 25°C
Páratartalom 94%
Légköri nyomás 1011 hPa
Látótávolság: 16.1 km
Szakadozott felhőzet 1600 lábon, Cumulonimbus.
Borult 12000 lábon
enyhe záporok

METAR: PTRO 222150Z 03004KT 10SM -SHRA BKN016CB OVC120 25/24 A2986 RMK CB ALQDS

Idő: 07:57 (22:57 UTC)

Előrejelzés

A jelentés 5 órával és 37 perccel ezelõtt készült, 17:20 UTC
Az előrejelzés 22-én 18 óra UTC és 23-én 18 óra UTC között érvényes
Keleti szél 6 kt
Látótávolság: 10 km
Szórványos felhőzet 1600 lábon
Szórványos felhőzet 12000 lábon
Záporok a közelben

TAF: PTRO 221720Z 2218/2318 10006KT P6SM VCSH SCT016 SCT120

Meteorológiai megfigyelések és előrejelzések több, mint 4000 repülőtéren (METAR és TAF jelentéseket).

A térképen piros és sárga pontok jelzik az elérhető meteorológiai állomásokat.

Mozgassa az egeret a pont fölött, hogy megjelenjen az állomás neve.

Azután kattintson az időjárási megfigyelések és előrejelzések megtekintéséhez.

A térkép megváltoztatása: kattintson a fekete keresztel jelölt zöld gombra ráközelítéshez, a vonallal jelölt zöld gombra távolításhoz, vagy a zöld nyilakra a szomszédos térképek eléréséhez.


METAR-TAF: